Time;durP1;ratioP1;P1;durP2;ratioP2;P2;SDS_P1;SDS_P2;PMS_P1;PMS_P2;Temp;Humidity;BMP_temperature;BMP_pressure;BME280_temperature;BME280_humidity;BME280_pressure;Samples;Min_cycle;Max_cycle;Signal;HPM_P1;HPM_P2
2022/07/29 00:00:44;;;;;;;4.88;1.98;;;;;;;;;;4860002;29;20052;-75
2022/07/29 00:03:10;;;;;;;1.55;1.45;;;;;;;;;;4861230;29;20081;-78
2022/07/29 00:05:38;;;;;;;2.22;1.52;;;;;;;;;;4861397;29;20057;-76
2022/07/29 00:08:04;;;;;;;1.70;1.60;;;;;;;;;;4861146;29;20138;-77
2022/07/29 00:10:30;;;;;;;1.80;1.70;;;;;;;;;;4844163;29;20140;-77
2022/07/29 00:12:56;;;;;;;2.08;1.88;;;;;;;;;;4874565;29;20061;-78
2022/07/29 00:15:22;;;;;;;1.98;1.77;;;;;;;;;;4873001;29;20049;-77
2022/07/29 00:17:48;;;;;;;1.80;1.70;;;;;;;;;;4869477;29;20061;-78
2022/07/29 00:20:14;;;;;;;3.00;1.60;;;;;;;;;;4861211;29;20037;-76
2022/07/29 00:22:40;;;;;;;1.75;1.65;;;;;;;;;;4860797;29;20052;-76
2022/07/29 00:25:06;;;;;;;1.90;1.80;;;;;;;;;;4859012;29;20057;-78
2022/07/29 00:27:32;;;;;;;3.10;1.50;;;;;;;;;;4859282;29;20093;-77
2022/07/29 00:29:59;;;;;;;2.75;1.67;;;;;;;;;;4859759;29;20132;-78
2022/07/29 00:32:25;;;;;;;2.55;1.58;;;;;;;;;;4860296;29;20128;-76
2022/07/29 00:37:35;;;;;;;2.85;1.50;;;;;;;;;;4860418;29;20061;-76
2022/07/29 00:40:01;;;;;;;1.60;1.50;;;;;;;;;;4860150;29;20053;-78
2022/07/29 00:42:28;;;;;;;1.85;1.73;;;;;;;;;;4860372;29;20050;-76
2022/07/29 00:44:54;;;;;;;3.40;1.70;;;;;;;;;;4860488;29;20468;-77
2022/07/29 00:47:20;;;;;;;6.88;1.75;;;;;;;;;;4860357;29;20076;-77
2022/07/29 00:49:46;;;;;;;4.47;1.67;;;;;;;;;;4860450;29;20077;-77
2022/07/29 00:52:12;;;;;;;2.10;1.90;;;;;;;;;;4859363;29;20207;-78
2022/07/29 00:54:38;;;;;;;3.10;1.60;;;;;;;;;;4860383;29;20119;-76
2022/07/29 00:57:05;;;;;;;2.75;1.77;;;;;;;;;;4858619;29;20953;-78
2022/07/29 00:59:31;;;;;;;2.30;2.10;;;;;;;;;;4860566;29;20053;-77
2022/07/29 01:01:57;;;;;;;1.83;1.73;;;;;;;;;;4860124;29;20101;-76
2022/07/29 01:04:23;;;;;;;1.90;1.77;;;;;;;;;;4859499;29;20061;-77
2022/07/29 01:06:49;;;;;;;2.63;1.90;;;;;;;;;;4860364;29;20053;-77
2022/07/29 01:09:15;;;;;;;4.57;1.55;;;;;;;;;;4859087;29;20746;-78
2022/07/29 01:11:41;;;;;;;2.15;1.80;;;;;;;;;;4858885;29;20522;-78
2022/07/29 01:14:07;;;;;;;2.90;2.00;;;;;;;;;;4860088;29;20140;-78
2022/07/29 01:16:35;;;;;;;1.90;1.80;;;;;;;;;;4858988;29;20186;-77
2022/07/29 01:19:03;;;;;;;8.27;2.00;;;;;;;;;;4859990;29;20073;-78
2022/07/29 01:21:35;;;;;;;3.83;1.88;;;;;;;;;;4858698;29;20045;-77
2022/07/29 01:24:04;;;;;;;4.00;1.67;;;;;;;;;;4859776;29;20052;-78
2022/07/29 01:26:43;;;;;;;1.92;1.77;;;;;;;;;;4858847;29;20060;-78
2022/07/29 01:29:20;;;;;;;2.88;2.00;;;;;;;;;;4859371;29;20049;-78
2022/07/29 01:32:03;;;;;;;1.70;1.60;;;;;;;;;;4859733;29;20057;-79
2022/07/29 01:34:38;;;;;;;3.33;1.88;;;;;;;;;;4859610;29;20064;-78
2022/07/29 01:37:08;;;;;;;3.80;1.60;;;;;;;;;;4859409;29;20072;-79
2022/07/29 01:39:34;;;;;;;9.15;2.03;;;;;;;;;;4859840;29;20053;-78
2022/07/29 01:42:06;;;;;;;3.00;2.63;;;;;;;;;;4858235;29;20053;-79
2022/07/29 01:44:33;;;;;;;2.25;1.77;;;;;;;;;;4859578;29;20085;-78
2022/07/29 01:47:00;;;;;;;5.93;1.70;;;;;;;;;;4858025;29;20580;-77
2022/07/29 01:49:27;;;;;;;1.90;1.80;;;;;;;;;;4859831;29;20175;-78
2022/07/29 01:51:54;;;;;;;4.40;1.90;;;;;;;;;;4859373;29;20053;-76
2022/07/29 01:54:21;;;;;;;1.60;1.50;;;;;;;;;;4859643;29;20041;-78
2022/07/29 01:56:48;;;;;;;1.90;1.70;;;;;;;;;;4842378;29;20441;-77
2022/07/29 01:59:14;;;;;;;1.88;1.58;;;;;;;;;;4858170;29;20049;-77
2022/07/29 02:01:40;;;;;;;2.13;1.92;;;;;;;;;;4842701;29;20494;-78
2022/07/29 02:04:06;;;;;;;2.30;1.92;;;;;;;;;;4859355;29;20422;-77
2022/07/29 02:06:32;;;;;;;2.25;1.85;;;;;;;;;;4858664;29;20056;-79
2022/07/29 02:08:58;;;;;;;3.03;1.98;;;;;;;;;;4862859;29;20049;-76
2022/07/29 02:11:24;;;;;;;1.70;1.60;;;;;;;;;;4867873;29;20104;-78
2022/07/29 02:13:50;;;;;;;5.80;1.90;;;;;;;;;;4869285;29;20045;-77
2022/07/29 02:16:16;;;;;;;3.22;1.83;;;;;;;;;;4864161;29;20072;-77
2022/07/29 02:18:42;;;;;;;4.15;1.80;;;;;;;;;;4866560;29;20042;-78
2022/07/29 02:21:08;;;;;;;2.90;1.80;;;;;;;;;;4863415;29;20037;-77
2022/07/29 02:23:34;;;;;;;3.00;1.85;;;;;;;;;;4858501;29;20145;-76
2022/07/29 02:26:00;;;;;;;2.45;2.00;;;;;;;;;;4858629;29;20053;-78
2022/07/29 02:28:26;;;;;;;3.45;1.90;;;;;;;;;;4857394;29;20437;-78
2022/07/29 02:30:53;;;;;;;6.03;2.28;;;;;;;;;;4857031;29;20049;-76
2022/07/29 02:33:19;;;;;;;3.22;1.80;;;;;;;;;;4857191;29;20423;-79
2022/07/29 02:35:45;;;;;;;3.05;1.85;;;;;;;;;;4857476;29;20518;-76
2022/07/29 02:40:56;;;;;;;5.95;2.17;;;;;;;;;;4856997;29;20067;-76
2022/07/29 02:43:22;;;;;;;6.38;1.90;;;;;;;;;;4858228;29;20183;-77
2022/07/29 02:45:49;;;;;;;3.60;1.98;;;;;;;;;;4856921;29;20065;-78
2022/07/29 02:48:15;;;;;;;2.42;1.85;;;;;;;;;;4856669;29;20124;-77
2022/07/29 02:50:51;;;;;;;4.80;2.35;;;;;;;;;;4857114;29;20144;-77
2022/07/29 02:53:21;;;;;;;2.60;2.03;;;;;;;;;;4857233;29;20052;-76
2022/07/29 02:56:01;;;;;;;2.70;2.00;;;;;;;;;;4858225;29;20113;-76
2022/07/29 02:58:28;;;;;;;4.13;2.10;;;;;;;;;;4858549;29;20041;-77
2022/07/29 03:00:58;;;;;;;5.00;1.88;;;;;;;;;;4856475;29;20411;-76
2022/07/29 03:03:25;;;;;;;2.85;2.10;;;;;;;;;;4857983;29;20128;-78
2022/07/29 03:05:57;;;;;;;3.05;2.13;;;;;;;;;;4857883;29;20061;-77
2022/07/29 03:08:23;;;;;;;3.75;1.98;;;;;;;;;;4857048;29;20061;-77
2022/07/29 03:10:48;;;;;;;6.95;2.15;;;;;;;;;;4857004;29;20184;-77
2022/07/29 03:13:14;;;;;;;2.30;2.10;;;;;;;;;;4857014;29;20052;-76
2022/07/29 03:15:44;;;;;;;4.18;1.98;;;;;;;;;;4857915;29;20053;-77
2022/07/29 03:18:10;;;;;;;8.07;2.50;;;;;;;;;;4856350;29;20049;-78
2022/07/29 03:20:36;;;;;;;5.38;2.13;;;;;;;;;;4857563;29;20503;-76
2022/07/29 03:23:02;;;;;;;3.58;2.10;;;;;;;;;;4856148;29;20455;-77
2022/07/29 03:25:28;;;;;;;5.68;2.38;;;;;;;;;;4857629;29;20077;-78
2022/07/29 03:27:54;;;;;;;4.07;2.25;;;;;;;;;;4858412;29;20053;-78
2022/07/29 03:30:20;;;;;;;6.28;1.98;;;;;;;;;;4860075;29;20162;-78
2022/07/29 03:32:46;;;;;;;3.38;1.90;;;;;;;;;;4861791;29;20431;-78
2022/07/29 03:35:12;;;;;;;2.50;2.03;;;;;;;;;;4861459;29;20061;-78
2022/07/29 03:37:38;;;;;;;9.27;2.35;;;;;;;;;;4861409;29;20478;-77
2022/07/29 03:40:05;;;;;;;4.90;2.05;;;;;;;;;;4861100;29;20046;-77
2022/07/29 03:42:31;;;;;;;8.80;2.17;;;;;;;;;;4844530;29;20128;-77
2022/07/29 03:44:58;;;;;;;3.95;1.90;;;;;;;;;;4859947;29;20064;-78
2022/07/29 03:47:25;;;;;;;4.32;2.00;;;;;;;;;;4859766;29;20057;-78
2022/07/29 03:49:52;;;;;;;1.88;1.70;;;;;;;;;;4861578;29;20045;-77
2022/07/29 03:52:18;;;;;;;4.05;2.03;;;;;;;;;;4860651;29;20193;-77
2022/07/29 03:54:44;;;;;;;3.83;1.67;;;;;;;;;;4861353;29;20079;-78
2022/07/29 03:57:10;;;;;;;7.07;2.20;;;;;;;;;;4861057;29;20045;-76
2022/07/29 03:59:37;;;;;;;3.40;1.85;;;;;;;;;;4860422;29;20048;-77
2022/07/29 04:02:04;;;;;;;2.22;2.03;;;;;;;;;;4869307;29;20033;-77
2022/07/29 04:04:32;;;;;;;4.80;2.33;;;;;;;;;;4869163;29;20060;-78
2022/07/29 04:06:57;;;;;;;2.65;1.75;;;;;;;;;;4859933;29;20046;-78
2022/07/29 04:09:24;;;;;;;3.70;2.20;;;;;;;;;;4861387;29;20109;-77
2022/07/29 04:11:50;;;;;;;3.70;2.13;;;;;;;;;;4860846;29;20510;-77
2022/07/29 04:14:15;;;;;;;3.50;2.15;;;;;;;;;;4860881;29;20121;-75
2022/07/29 04:16:41;;;;;;;5.72;2.05;;;;;;;;;;4859483;29;20495;-77
2022/07/29 04:19:07;;;;;;;6.85;2.53;;;;;;;;;;4860440;29;20048;-77
2022/07/29 04:21:37;;;;;;;2.53;1.90;;;;;;;;;;4860555;29;20484;-78
2022/07/29 04:24:03;;;;;;;3.28;1.80;;;;;;;;;;4860410;29;20140;-77
2022/07/29 04:26:28;;;;;;;2.25;2.05;;;;;;;;;;4860620;29;20140;-78
2022/07/29 04:28:54;;;;;;;7.10;2.20;;;;;;;;;;4858942;29;20150;-77
2022/07/29 04:31:20;;;;;;;8.13;2.10;;;;;;;;;;4861011;29;20064;-78
2022/07/29 04:33:46;;;;;;;2.20;1.98;;;;;;;;;;4879170;29;20049;-78
2022/07/29 04:36:12;;;;;;;5.43;1.98;;;;;;;;;;4878939;29;20055;-78
2022/07/29 04:38:38;;;;;;;4.18;1.85;;;;;;;;;;4877937;29;20033;-79
2022/07/29 04:41:06;;;;;;;4.75;2.03;;;;;;;;;;4878402;29;20056;-78
2022/07/29 04:43:33;;;;;;;4.60;1.85;;;;;;;;;;4878943;29;20080;-78
2022/07/29 04:45:59;;;;;;;3.63;1.90;;;;;;;;;;4878757;29;20173;-80
2022/07/29 04:48:25;;;;;;;3.00;1.90;;;;;;;;;;4878734;29;20388;-77
2022/07/29 04:50:51;;;;;;;5.40;2.50;;;;;;;;;;4861792;29;20415;-79
2022/07/29 04:53:17;;;;;;;4.40;1.85;;;;;;;;;;4878827;29;20522;-77
2022/07/29 04:55:43;;;;;;;6.28;2.00;;;;;;;;;;4862165;29;20081;-77
2022/07/29 04:58:09;;;;;;;2.63;1.80;;;;;;;;;;4878462;29;20052;-78
2022/07/29 05:00:35;;;;;;;4.53;1.95;;;;;;;;;;4878836;29;20105;-77
2022/07/29 05:03:01;;;;;;;2.60;1.75;;;;;;;;;;4878156;29;20049;-78
2022/07/29 05:05:27;;;;;;;2.05;1.70;;;;;;;;;;4878641;29;20084;-78
2022/07/29 05:07:53;;;;;;;5.75;1.70;;;;;;;;;;4878241;29;20049;-78
2022/07/29 05:10:18;;;;;;;3.83;1.58;;;;;;;;;;4878251;29;21088;-77
2022/07/29 05:12:44;;;;;;;1.75;1.63;;;;;;;;;;4878312;29;20534;-78
2022/07/29 05:15:10;;;;;;;1.25;1.20;;;;;;;;;;4878513;29;20075;-77
2022/07/29 05:17:36;;;;;;;2.08;1.70;;;;;;;;;;4878440;29;20145;-77
2022/07/29 05:20:02;;;;;;;2.42;1.67;;;;;;;;;;4878275;29;20159;-77
2022/07/29 05:22:29;;;;;;;4.57;1.95;;;;;;;;;;4861757;29;20087;-77
2022/07/29 05:24:55;;;;;;;1.77;1.42;;;;;;;;;;4878645;29;20092;-77
2022/07/29 05:27:21;;;;;;;2.88;1.70;;;;;;;;;;4878281;29;20056;-77
2022/07/29 05:29:47;;;;;;;4.75;1.75;;;;;;;;;;4862676;29;20045;-77
2022/07/29 05:32:13;;;;;;;3.13;1.65;;;;;;;;;;4890429;29;20071;-77
2022/07/29 05:34:39;;;;;;;1.65;1.55;;;;;;;;;;4890664;29;20049;-77
2022/07/29 05:37:05;;;;;;;3.38;1.85;;;;;;;;;;4882920;29;20085;-82
2022/07/29 05:39:31;;;;;;;2.42;1.63;;;;;;;;;;4861532;29;20525;-78
2022/07/29 05:41:57;;;;;;;2.53;1.50;;;;;;;;;;4861256;29;20049;-81
2022/07/29 05:44:23;;;;;;;1.58;1.48;;;;;;;;;;4861089;29;20082;-81
2022/07/29 05:46:49;;;;;;;2.58;1.75;;;;;;;;;;4861425;29;20041;-77
2022/07/29 05:49:15;;;;;;;1.25;1.20;;;;;;;;;;4877686;29;20048;-79
2022/07/29 05:51:41;;;;;;;1.85;1.70;;;;;;;;;;4830520;29;20544;-80
2022/07/29 05:54:07;;;;;;;1.58;1.48;;;;;;;;;;4882195;29;20036;-77
2022/07/29 05:56:35;;;;;;;2.60;1.60;;;;;;;;;;4894647;29;20125;-77
2022/07/29 05:59:01;;;;;;;5.43;1.73;;;;;;;;;;4877989;29;20049;-76
2022/07/29 06:01:27;;;;;;;2.90;2.20;;;;;;;;;;4877691;29;20502;-77
2022/07/29 06:03:53;;;;;;;3.40;1.50;;;;;;;;;;4877605;29;20033;-76
2022/07/29 06:06:19;;;;;;;5.63;1.83;;;;;;;;;;4861066;29;20052;-78
2022/07/29 06:08:45;;;;;;;4.15;1.30;;;;;;;;;;4877716;29;20049;-78
2022/07/29 06:11:11;;;;;;;1.10;0.93;;;;;;;;;;4877397;29;20453;-78
2022/07/29 06:13:36;;;;;;;1.88;1.45;;;;;;;;;;4877585;29;20033;-76
2022/07/29 06:16:02;;;;;;;4.82;1.60;;;;;;;;;;4860955;29;20049;-77
2022/07/29 06:18:28;;;;;;;4.65;1.75;;;;;;;;;;4877373;29;20072;-77
2022/07/29 06:20:54;;;;;;;4.20;1.55;;;;;;;;;;4877469;29;20045;-78
2022/07/29 06:23:20;;;;;;;4.90;1.65;;;;;;;;;;4876758;29;20041;-78
2022/07/29 06:25:46;;;;;;;1.65;1.40;;;;;;;;;;4877373;29;20434;-77
2022/07/29 06:28:12;;;;;;;2.97;1.75;;;;;;;;;;4876972;29;20045;-77
2022/07/29 06:30:38;;;;;;;3.13;1.83;;;;;;;;;;4860633;29;20048;-78
2022/07/29 06:33:04;;;;;;;3.25;1.50;;;;;;;;;;4876458;29;20044;-78
2022/07/29 06:35:30;;;;;;;2.08;1.13;;;;;;;;;;4877197;29;20549;-78
2022/07/29 06:37:56;;;;;;;1.58;1.48;;;;;;;;;;4876913;29;20100;-78
2022/07/29 06:43:06;;;;;;;3.30;1.70;;;;;;;;;;4859943;29;20040;-79
2022/07/29 06:45:36;;;;;;;6.07;1.60;;;;;;;;;;4877071;29;20147;-77
2022/07/29 06:48:02;;;;;;;2.28;1.60;;;;;;;;;;4876632;29;20085;-79
2022/07/29 06:50:27;;;;;;;2.70;1.70;;;;;;;;;;4876557;29;20088;-77
2022/07/29 06:52:53;;;;;;;4.47;1.77;;;;;;;;;;4876758;29;20048;-76
2022/07/29 06:55:19;;;;;;;1.50;1.40;;;;;;;;;;4876767;29;20052;-77
2022/07/29 06:57:46;;;;;;;3.92;1.50;;;;;;;;;;4860373;29;20093;-78
2022/07/29 07:00:12;;;;;;;2.90;1.60;;;;;;;;;;4876829;29;20144;-77
2022/07/29 07:02:38;;;;;;;3.65;1.65;;;;;;;;;;4876301;29;20048;-77
2022/07/29 07:05:05;;;;;;;2.42;1.58;;;;;;;;;;4860149;29;20057;-77
2022/07/29 07:07:31;;;;;;;1.83;1.60;;;;;;;;;;4860219;29;20072;-78
2022/07/29 07:09:56;;;;;;;1.77;1.30;;;;;;;;;;4877060;29;20546;-78
2022/07/29 07:12:22;;;;;;;3.67;1.60;;;;;;;;;;4876321;29;20068;-78
2022/07/29 07:14:48;;;;;;;2.88;1.60;;;;;;;;;;4860917;29;20534;-78
2022/07/29 07:17:15;;;;;;;4.43;1.80;;;;;;;;;;4876563;29;20540;-75
2022/07/29 07:19:41;;;;;;;3.00;1.50;;;;;;;;;;4876968;29;20382;-78
2022/07/29 07:22:07;;;;;;;3.40;1.52;;;;;;;;;;4859284;29;20053;-79
2022/07/29 07:24:33;;;;;;;1.88;1.58;;;;;;;;;;4876268;29;20044;-78
2022/07/29 07:26:59;;;;;;;1.77;1.67;;;;;;;;;;4876603;29;20501;-77
2022/07/29 07:29:25;;;;;;;5.82;1.60;;;;;;;;;;4860108;29;20068;-77
2022/07/29 07:31:51;;;;;;;2.03;1.38;;;;;;;;;;4859912;29;20055;-78
2022/07/29 07:34:17;;;;;;;3.80;1.77;;;;;;;;;;4876328;29;20053;-77
2022/07/29 07:36:43;;;;;;;4.65;1.60;;;;;;;;;;4876403;29;20538;-78
2022/07/29 07:39:09;;;;;;;1.75;1.63;;;;;;;;;;4876696;29;20482;-78
2022/07/29 07:41:35;;;;;;;3.40;1.33;;;;;;;;;;4859828;29;20045;-78
2022/07/29 07:44:01;;;;;;;6.13;1.50;;;;;;;;;;4876692;29;20064;-77
2022/07/29 07:46:27;;;;;;;1.13;1.13;;;;;;;;;;4876061;29;20099;-79
2022/07/29 07:48:53;;;;;;;1.42;1.30;;;;;;;;;;4886297;29;20041;-77
2022/07/29 07:51:19;;;;;;;2.78;1.33;;;;;;;;;;4863244;29;20041;-77
2022/07/29 07:53:49;;;;;;;2.67;1.35;;;;;;;;;;4876666;29;20128;-78
2022/07/29 07:56:15;;;;;;;1.60;1.50;;;;;;;;;;4876261;29;20404;-77
2022/07/29 07:58:41;;;;;;;2.42;1.30;;;;;;;;;;4876313;29;20045;-77
2022/07/29 08:01:07;;;;;;;4.90;1.30;;;;;;;;;;4876057;29;20438;-78
2022/07/29 08:03:33;;;;;;;3.50;1.25;;;;;;;;;;4875911;29;20184;-79
2022/07/29 08:05:59;;;;;;;5.28;1.88;;;;;;;;;;4876290;29;20582;-78
2022/07/29 08:08:25;;;;;;;4.15;1.38;;;;;;;;;;4876035;29;20037;-78
2022/07/29 08:10:58;;;;;;;2.20;1.42;;;;;;;;;;4859777;29;20071;-79
2022/07/29 08:13:28;;;;;;;2.38;1.80;;;;;;;;;;4860775;29;20136;-80
2022/07/29 08:16:01;;;;;;;;;;;;;;;;;;4880300;29;20082;-78
2022/07/29 08:18:27;;;;;;;1.52;1.23;;;;;;;;;;4879200;29;20016;-79
2022/07/29 08:20:53;;;;;;;6.18;1.52;;;;;;;;;;4879447;29;20044;-79
2022/07/29 08:23:19;;;;;;;1.67;1.40;;;;;;;;;;4862571;29;20085;-79
2022/07/29 08:25:45;;;;;;;5.82;1.50;;;;;;;;;;4879389;29;20049;-81
2022/07/29 08:28:11;;;;;;;4.40;1.42;;;;;;;;;;4878980;29;20047;-79
2022/07/29 08:30:36;;;;;;;5.63;1.80;;;;;;;;;;4879595;29;20121;-76
2022/07/29 08:33:03;;;;;;;9.00;1.60;;;;;;;;;;4879167;29;20041;-79
2022/07/29 08:35:29;;;;;;;2.88;1.60;;;;;;;;;;4879560;29;20049;-78
2022/07/29 08:37:56;;;;;;;1.85;1.25;;;;;;;;;;4879291;29;20056;-77
2022/07/29 08:40:23;;;;;;;2.13;1.35;;;;;;;;;;4863180;29;20069;-78
2022/07/29 08:42:49;;;;;;;3.22;1.20;;;;;;;;;;4880090;29;20482;-78
2022/07/29 08:45:15;;;;;;;4.25;1.42;;;;;;;;;;4890410;29;20626;-77
2022/07/29 08:47:41;;;;;;;3.63;1.40;;;;;;;;;;4892762;29;20041;-79
2022/07/29 08:50:07;;;;;;;4.10;1.40;;;;;;;;;;4883579;29;20135;-79
2022/07/29 08:52:35;;;;;;;2.42;1.40;;;;;;;;;;4862861;29;20044;-79
2022/07/29 08:55:01;;;;;;;2.05;1.20;;;;;;;;;;4862825;29;20533;-80
2022/07/29 08:57:29;;;;;;;2.72;1.27;;;;;;;;;;4862444;29;20065;-78
2022/07/29 08:59:55;;;;;;;1.48;1.38;;;;;;;;;;4879353;29;20144;-78
2022/07/29 09:02:21;;;;;;;1.20;1.10;;;;;;;;;;4879069;29;20045;-78
2022/07/29 09:04:48;;;;;;;1.30;1.20;;;;;;;;;;4879003;29;20096;-79
2022/07/29 09:07:17;;;;;;;1.58;1.45;;;;;;;;;;4878482;29;20041;-80
2022/07/29 09:09:43;;;;;;;1.60;1.50;;;;;;;;;;4862151;29;20525;-78
2022/07/29 09:12:11;;;;;;;1.60;1.50;;;;;;;;;;4878911;29;20061;-79
2022/07/29 09:14:40;;;;;;;2.13;1.52;;;;;;;;;;4878618;29;20047;-79
2022/07/29 09:17:06;;;;;;;1.97;1.40;;;;;;;;;;4878678;29;20075;-79
2022/07/29 09:19:35;;;;;;;6.95;2.00;;;;;;;;;;4878168;29;20934;-79
2022/07/29 09:22:02;;;;;;;1.73;1.63;;;;;;;;;;4878498;29;20597;-80
2022/07/29 09:24:34;;;;;;;2.60;1.83;;;;;;;;;;4877969;29;20037;-80
2022/07/29 09:27:00;;;;;;;4.78;1.50;;;;;;;;;;4878686;29;20538;-79
2022/07/29 09:29:27;;;;;;;4.30;1.60;;;;;;;;;;4878545;29;20041;-78
2022/07/29 09:31:53;;;;;;;5.97;1.70;;;;;;;;;;4878597;29;20060;-80
2022/07/29 09:34:23;;;;;;;1.80;1.30;;;;;;;;;;4878180;29;20037;-79
2022/07/29 09:36:49;;;;;;;2.47;1.30;;;;;;;;;;4878917;29;20045;-79
2022/07/29 09:39:15;;;;;;;1.73;1.50;;;;;;;;;;4880379;29;20049;-81
2022/07/29 09:42:00;;;;;;;2.42;1.40;;;;;;;;;;4894853;29;20152;-78
2022/07/29 09:44:26;;;;;;;2.30;1.40;;;;;;;;;;4879717;29;20044;-79
2022/07/29 09:46:55;;;;;;;1.52;1.42;;;;;;;;;;4878771;29;20057;-80
2022/07/29 09:49:21;;;;;;;1.27;1.17;;;;;;;;;;4845876;29;20052;-80
2022/07/29 09:51:47;;;;;;;1.45;1.30;;;;;;;;;;4877976;29;20053;-78
2022/07/29 09:54:26;;;;;;;4.25;1.30;;;;;;;;;;4878008;29;20514;-79
2022/07/29 09:56:52;;;;;;;1.33;1.25;;;;;;;;;;4878411;29;20556;-82
2022/07/29 09:59:19;;;;;;;1.55;1.40;;;;;;;;;;4861515;29;20040;-79
2022/07/29 10:01:46;;;;;;;1.42;1.30;;;;;;;;;;4861680;29;20140;-78
2022/07/29 10:04:12;;;;;;;5.07;1.30;;;;;;;;;;4878062;29;20045;-79
2022/07/29 10:06:58;;;;;;;1.65;1.30;;;;;;;;;;4861082;29;20130;-77
2022/07/29 10:09:24;;;;;;;3.33;1.55;;;;;;;;;;4877634;29;20422;-79
2022/07/29 10:12:06;;;;;;;1.35;1.25;;;;;;;;;;4878317;29;20056;-80
2022/07/29 10:14:33;;;;;;;4.72;1.58;;;;;;;;;;4877369;29;20128;-80
2022/07/29 10:17:01;;;;;;;1.30;1.20;;;;;;;;;;4877736;29;20549;-79
2022/07/29 10:19:30;;;;;;;2.33;1.30;;;;;;;;;;4877247;29;20109;-80
2022/07/29 10:21:59;;;;;;;1.52;1.42;;;;;;;;;;4877534;29;20049;-81
2022/07/29 10:24:26;;;;;;;1.60;1.50;;;;;;;;;;4877208;29;20041;-79
2022/07/29 10:26:52;;;;;;;1.70;1.27;;;;;;;;;;4877912;29;20092;-79
2022/07/29 10:29:18;;;;;;;2.60;1.30;;;;;;;;;;4877281;29;20044;-80
2022/07/29 10:31:49;;;;;;;2.08;1.15;;;;;;;;;;4877512;29;20535;-79
2022/07/29 10:34:45;;;;;;;3.22;1.38;;;;;;;;;;4860500;29;20060;-79
2022/07/29 10:37:22;;;;;;;1.92;1.30;;;;;;;;;;4810017;29;20050;-77
2022/07/29 10:39:48;;;;;;;5.78;1.40;;;;;;;;;;4877382;29;20049;-79
2022/07/29 10:42:18;;;;;;;1.63;1.13;;;;;;;;;;4877078;29;20126;-79
2022/07/29 10:44:44;;;;;;;1.30;1.20;;;;;;;;;;4877133;29;20097;-78
2022/07/29 10:47:23;;;;;;;2.00;1.20;;;;;;;;;;4860721;29;20052;-79
2022/07/29 10:49:58;;;;;;;5.00;1.20;;;;;;;;;;4860458;29;20053;-79
2022/07/29 10:52:27;;;;;;;1.20;1.20;;;;;;;;;;4876907;29;20423;-80
2022/07/29 10:54:53;;;;;;;3.80;1.35;;;;;;;;;;4877234;29;20076;-79
2022/07/29 10:57:26;;;;;;;4.15;1.50;;;;;;;;;;4860216;29;20092;-78
2022/07/29 11:00:08;;;;;;;2.20;1.45;;;;;;;;;;4877088;29;20410;-80
2022/07/29 11:02:35;;;;;;;1.85;1.20;;;;;;;;;;4859868;29;20433;-79
2022/07/29 11:05:05;;;;;;;1.30;1.30;;;;;;;;;;4876707;29;20053;-78
2022/07/29 11:07:34;;;;;;;3.50;1.52;;;;;;;;;;4859859;29;20492;-79
2022/07/29 11:10:12;;;;;;;1.23;1.10;;;;;;;;;;4877155;29;20688;-79
2022/07/29 11:12:38;;;;;;;1.80;1.00;;;;;;;;;;4876822;29;20055;-79
2022/07/29 11:15:05;;;;;;;1.25;1.13;;;;;;;;;;4877026;29;20040;-79
2022/07/29 11:17:50;;;;;;;4.05;1.00;;;;;;;;;;4876683;29;20422;-78
2022/07/29 11:20:34;;;;;;;1.35;0.95;;;;;;;;;;4860248;29;20171;-78
2022/07/29 11:23:00;;;;;;;2.28;0.93;;;;;;;;;;4876897;29;20087;-78
2022/07/29 11:25:26;;;;;;;1.20;1.10;;;;;;;;;;4877048;29;20088;-81
2022/07/29 11:27:52;;;;;;;1.20;0.93;;;;;;;;;;4877718;29;20045;-81
2022/07/29 11:30:19;;;;;;;2.40;1.02;;;;;;;;;;4878396;29;20053;-79
2022/07/29 11:32:45;;;;;;;1.48;1.05;;;;;;;;;;4884801;29;20069;-79
2022/07/29 11:35:11;;;;;;;3.75;1.45;;;;;;;;;;4884337;29;20053;-80
2022/07/29 11:37:37;;;;;;;1.30;1.30;;;;;;;;;;4877829;29;20503;-77
2022/07/29 11:40:06;;;;;;;2.72;1.73;;;;;;;;;;4860108;29;20052;-79
2022/07/29 11:42:35;;;;;;;4.40;2.10;;;;;;;;;;4876142;29;20136;-78
2022/07/29 11:45:06;;;;;;;2.30;2.10;;;;;;;;;;4877143;29;20197;-80
2022/07/29 11:47:32;;;;;;;1.20;1.10;;;;;;;;;;4877011;29;20044;-81
2022/07/29 11:49:58;;;;;;;1.42;1.33;;;;;;;;;;4881648;29;20036;-80
2022/07/29 11:52:44;;;;;;;2.90;1.38;;;;;;;;;;4891036;29;20049;-79
2022/07/29 11:55:15;;;;;;;1.88;1.70;;;;;;;;;;4875289;29;20053;-79
2022/07/29 11:57:47;;;;;;;4.43;1.35;;;;;;;;;;4881912;29;20049;-81
2022/07/29 12:00:21;;;;;;;1.50;1.40;;;;;;;;;;4864005;29;20068;-80
2022/07/29 12:02:47;;;;;;;2.83;1.10;;;;;;;;;;4863592;29;20045;-80
2022/07/29 12:05:13;;;;;;;2.58;2.38;;;;;;;;;;4847968;29;20053;-80
2022/07/29 12:07:39;;;;;;;1.40;1.33;;;;;;;;;;4879578;29;20036;-79
2022/07/29 12:10:05;;;;;;;3.65;1.13;;;;;;;;;;4879800;29;20049;-79
2022/07/29 12:12:31;;;;;;;1.38;1.15;;;;;;;;;;4879250;29;20045;-79
2022/07/29 12:14:57;;;;;;;1.75;1.30;;;;;;;;;;4879881;29;20053;-79
2022/07/29 12:17:33;;;;;;;1.77;1.30;;;;;;;;;;4879395;29;20048;-78
2022/07/29 12:19:59;;;;;;;1.38;1.25;;;;;;;;;;4880200;29;20096;-79
2022/07/29 12:22:29;;;;;;;0.88;0.88;;;;;;;;;;4862655;29;20045;-81
2022/07/29 12:24:55;;;;;;;5.90;1.25;;;;;;;;;;4863165;29;20064;-79
2022/07/29 12:27:21;;;;;;;1.17;1.08;;;;;;;;;;4862750;29;20454;-82
2022/07/29 12:29:57;;;;;;;3.50;1.00;;;;;;;;;;4862681;29;20041;-80
2022/07/29 12:32:23;;;;;;;1.52;1.35;;;;;;;;;;4879384;29;20421;-81
2022/07/29 12:34:49;;;;;;;3.90;1.40;;;;;;;;;;4862653;29;20049;-79
2022/07/29 12:37:15;;;;;;;4.05;1.25;;;;;;;;;;4862931;29;20048;-80
2022/07/29 12:39:41;;;;;;;10.10;1.70;;;;;;;;;;4878856;29;20048;-78
2022/07/29 12:42:11;;;;;;;4.55;1.23;;;;;;;;;;4879183;29;20041;-81
2022/07/29 12:44:36;;;;;;;;;;;;;;;;;;4879027;29;20445;-78
2022/07/29 12:47:03;;;;;;;6.53;1.63;;;;;;;;;;4879465;29;19915;-79
2022/07/29 12:49:29;;;;;;;3.42;1.35;;;;;;;;;;4878762;29;20045;-80
2022/07/29 12:51:55;;;;;;;1.42;1.33;;;;;;;;;;4862615;29;20061;-79
2022/07/29 12:54:21;;;;;;;1.40;1.30;;;;;;;;;;4862471;29;20041;-79
2022/07/29 12:56:47;;;;;;;1.20;1.20;;;;;;;;;;4878802;29;20048;-80
2022/07/29 12:59:17;;;;;;;1.33;1.23;;;;;;;;;;4845855;29;20055;-79
2022/07/29 13:01:43;;;;;;;;;;;;;;;;;;4879123;29;20109;-80
2022/07/29 13:04:08;;;;;;;1.30;1.30;;;;;;;;;;4878762;29;19970;-80
2022/07/29 13:06:34;;;;;;;3.33;1.55;;;;;;;;;;4878449;29;20397;-80
2022/07/29 13:09:01;;;;;;;1.40;1.30;;;;;;;;;;4878842;29;20076;-79
2022/07/29 13:11:31;;;;;;;3.22;1.45;;;;;;;;;;4861757;29;20048;-81
2022/07/29 13:13:57;;;;;;;2.28;1.45;;;;;;;;;;4861801;29;20055;-79
2022/07/29 13:16:23;;;;;;;1.58;1.48;;;;;;;;;;4878236;29;20255;-80
2022/07/29 13:18:48;;;;;;;4.03;1.30;;;;;;;;;;4878298;29;20611;-80
2022/07/29 13:21:15;;;;;;;2.20;1.70;;;;;;;;;;4878846;29;20041;-80
2022/07/29 13:23:41;;;;;;;2.00;1.50;;;;;;;;;;4867179;29;20037;-79
2022/07/29 13:26:11;;;;;;;1.50;1.40;;;;;;;;;;4891713;29;20144;-80
2022/07/29 13:28:36;;;;;;;;;;;;;;;;;;4879946;29;20469;-80
2022/07/29 13:31:03;;;;;;;2.17;1.40;;;;;;;;;;4878751;29;19922;-80
2022/07/29 13:33:29;;;;;;;1.10;1.10;;;;;;;;;;4877975;29;20081;-80
2022/07/29 13:35:55;;;;;;;1.73;1.50;;;;;;;;;;4878453;29;20101;-81
2022/07/29 13:38:21;;;;;;;3.33;1.20;;;;;;;;;;4878305;29;20049;-80
2022/07/29 13:40:47;;;;;;;1.48;1.40;;;;;;;;;;4861594;29;20533;-79
2022/07/29 13:43:14;;;;;;;1.40;1.30;;;;;;;;;;4861536;29;20053;-80
2022/07/29 13:45:40;;;;;;;1.60;1.50;;;;;;;;;;4861269;29;20067;-80
2022/07/29 13:48:06;;;;;;;4.85;1.70;;;;;;;;;;4861253;29;20092;-79
2022/07/29 13:50:32;;;;;;;1.60;1.30;;;;;;;;;;4877827;29;20057;-78
2022/07/29 13:52:58;;;;;;;2.65;1.23;;;;;;;;;;4846000;29;20470;-78
2022/07/29 13:55:24;;;;;;;2.78;1.02;;;;;;;;;;4877531;29;20052;-80
2022/07/29 13:57:50;;;;;;;4.78;1.30;;;;;;;;;;4860934;29;20048;-78
2022/07/29 14:00:16;;;;;;;1.70;1.60;;;;;;;;;;4861418;29;20063;-80
2022/07/29 14:02:42;;;;;;;1.60;1.50;;;;;;;;;;4860716;29;20088;-78
2022/07/29 14:05:09;;;;;;;1.42;1.30;;;;;;;;;;4830702;29;20060;-79
2022/07/29 14:07:35;;;;;;;2.33;1.20;;;;;;;;;;4860685;29;20655;-78
2022/07/29 14:10:02;;;;;;;5.10;1.30;;;;;;;;;;4877429;29;20045;-78
2022/07/29 14:12:28;;;;;;;4.25;1.40;;;;;;;;;;4845015;29;20052;-79
2022/07/29 14:14:55;;;;;;;1.98;1.77;;;;;;;;;;4877427;29;20542;-79
2022/07/29 14:17:21;;;;;;;2.17;1.40;;;;;;;;;;4877616;29;20100;-77
2022/07/29 14:19:47;;;;;;;1.67;1.30;;;;;;;;;;4877330;29;20037;-80
2022/07/29 14:22:13;;;;;;;3.83;1.58;;;;;;;;;;4877177;29;20135;-79
2022/07/29 14:24:39;;;;;;;1.45;1.35;;;;;;;;;;4876781;29;20051;-79
2022/07/29 14:27:05;;;;;;;1.52;1.42;;;;;;;;;;4860830;29;20422;-81
2022/07/29 14:29:31;;;;;;;2.20;1.30;;;;;;;;;;4877305;29;20048;-80
2022/07/29 14:31:58;;;;;;;1.98;1.40;;;;;;;;;;4877294;29;20060;-80
2022/07/29 14:34:24;;;;;;;3.00;1.30;;;;;;;;;;4860285;29;20530;-80
2022/07/29 14:36:49;;;;;;;1.70;1.60;;;;;;;;;;4876979;29;20055;-79
2022/07/29 14:39:16;;;;;;;1.70;1.30;;;;;;;;;;4877290;29;20041;-77
2022/07/29 14:41:42;;;;;;;1.98;1.88;;;;;;;;;;4860368;29;20214;-81
2022/07/29 14:44:08;;;;;;;1.60;1.50;;;;;;;;;;4877374;29;20032;-81
2022/07/29 14:46:34;;;;;;;3.42;1.70;;;;;;;;;;4877043;29;20089;-79
2022/07/29 14:49:00;;;;;;;2.38;1.67;;;;;;;;;;4877559;29;20056;-79
2022/07/29 14:51:25;;;;;;;2.15;1.77;;;;;;;;;;4877906;29;20529;-79